Newington, Georgia
Current Conditions -  °F | °C
As of 2:35 PM on Thursday 23 Oct 2014 (Local Time) from KJYL Reporting Station
Clear Clear  
Wind Chill: 74°   Ceiling: Unl
Heat Index: 74°   Visibility: 10mi
Dew Point: 48°   Wind: 6mph
Humidity: 40%   Direction: 360°N
Pressure: 30.04"   Gusts: NA
Location:  32.59°N, 81.5°W
Report Text: KJYL 231835Z AUTO 36005KT 10SM CLR 24/09 A3004 RMK AO2 T02350091
Loading
Personal Weather Stations






























Interactive Weather Map
Tropical Storm Tracking
New forecast layout! Learn more

10-Day Weather Forecast

Advertisements
Track Severe Weather on mobile